createdAt,value
2022-08-05T00:00:49.973Z,25.04
2022-08-05T00:01:48.977Z,24.93
2022-08-05T00:02:23.801Z,24.96
2022-08-05T00:03:15.495Z,24.94
2022-08-05T00:03:50.341Z,24.87
2022-08-05T00:04:37.027Z,24.83
2022-08-05T00:06:02.912Z,24.72
2022-08-05T00:06:28.949Z,24.77
2022-08-05T00:07:26.809Z,24.71
2022-08-05T00:08:32.694Z,24.67
2022-08-05T00:09:13.200Z,24.53
2022-08-05T00:09:56.082Z,24.56
2022-08-05T00:10:36.035Z,24.56
2022-08-05T00:11:30.155Z,24.50
2022-08-05T00:12:14.998Z,24.45
2022-08-05T00:12:57.125Z,24.55
2022-08-05T00:13:43.980Z,24.56
2022-08-05T00:14:33.079Z,24.43
2022-08-05T00:15:56.074Z,24.28
2022-08-05T00:16:35.461Z,24.43
2022-08-05T00:17:19.321Z,24.39
2022-08-05T00:17:53.695Z,24.49
2022-08-05T00:18:35.996Z,24.46
2022-08-05T00:19:12.040Z,24.41
2022-08-05T00:20:02.569Z,24.39
2022-08-05T00:20:42.971Z,24.35
2022-08-05T00:21:31.041Z,24.26
2022-08-05T00:22:11.378Z,24.25
2022-08-05T00:23:02.624Z,24.25
2022-08-05T00:24:05.185Z,24.29
2022-08-05T00:24:55.315Z,24.33
2022-08-05T00:25:45.573Z,24.18
2022-08-05T00:26:34.005Z,24.32
2022-08-05T00:27:10.444Z,24.29
2022-08-05T00:28:01.001Z,24.22
2022-08-05T00:28:36.435Z,24.23
2022-08-05T00:29:25.675Z,24.22
2022-08-05T00:30:00.410Z,24.39
2022-08-05T00:30:52.091Z,24.45
2022-08-05T00:31:53.571Z,24.40
2022-08-05T00:32:29.013Z,24.41
2022-08-05T00:33:03.615Z,24.34
2022-08-05T00:34:55.197Z,24.18
2022-08-05T00:34:56.126Z,24.23
2022-08-05T00:35:33.502Z,24.47
2022-08-05T00:36:16.454Z,24.32
2022-08-05T00:37:13.826Z,24.25
2022-08-05T00:37:54.998Z,24.35
2022-08-05T00:38:33.744Z,24.38
2022-08-05T00:39:21.031Z,24.39
2022-08-05T00:39:59.291Z,24.35
2022-08-05T00:40:46.601Z,24.36
2022-08-05T00:41:52.062Z,24.46
2022-08-05T00:42:50.005Z,24.43
2022-08-05T00:43:30.129Z,24.28
2022-08-05T00:44:30.861Z,24.29
2022-08-05T00:45:13.961Z,24.33
2022-08-05T00:45:55.317Z,24.20
2022-08-05T00:46:42.619Z,24.32
2022-08-05T00:47:24.045Z,24.14
2022-08-05T00:48:05.595Z,24.19
2022-08-05T00:48:53.007Z,24.28
2022-08-05T00:49:27.855Z,24.18
2022-08-05T00:50:21.960Z,24.21
2022-08-05T00:50:59.732Z,24.18
2022-08-05T00:51:55.962Z,24.25
2022-08-05T00:52:31.017Z,24.22
2022-08-05T00:54:00.086Z,24.26
2022-08-05T00:54:20.002Z,24.20
2022-08-05T00:55:00.082Z,24.13
2022-08-05T00:55:42.824Z,24.08
2022-08-05T00:56:25.032Z,24.21
2022-08-05T00:57:04.964Z,24.19
2022-08-05T00:57:58.720Z,24.15
2022-08-05T00:58:42.511Z,24.16
2022-08-05T00:59:42.063Z,24.08
2022-08-05T01:00:20.007Z,24.17
2022-08-05T01:01:09.728Z,24.20
2022-08-05T01:01:48.902Z,24.20
2022-08-05T01:02:35.983Z,23.98
2022-08-05T01:03:22.287Z,24.02
2022-08-05T01:04:13.664Z,24.02
2022-08-05T01:04:54.992Z,24.02
2022-08-05T01:05:36.027Z,24.07
2022-08-05T01:06:16.945Z,23.98
2022-08-05T01:06:57.053Z,23.90
2022-08-05T01:08:40.333Z,23.85
2022-08-05T01:08:42.581Z,23.81
2022-08-05T01:09:30.958Z,23.80
2022-08-05T01:10:11.982Z,23.83
2022-08-05T01:11:13.945Z,23.87
2022-08-05T01:12:29.668Z,23.75
2022-08-05T01:13:57.577Z,23.93
2022-08-05T01:14:58.959Z,23.90
2022-08-05T01:16:03.974Z,23.85
2022-08-05T01:17:11.041Z,23.93
2022-08-05T01:17:57.941Z,23.92
2022-08-05T01:18:56.462Z,23.86
2022-08-05T01:20:00.878Z,23.88
2022-08-05T01:21:22.677Z,23.70
2022-08-05T01:22:47.274Z,23.71
2022-08-05T01:24:15.098Z,23.74
2022-08-05T01:25:18.940Z,23.72
2022-08-05T01:26:10.033Z,23.64
2022-08-05T01:27:19.126Z,23.74
2022-08-05T01:28:34.038Z,23.61
2022-08-05T01:29:31.941Z,23.57
2022-08-05T01:30:18.733Z,23.50
2022-08-05T01:31:23.936Z,23.50
2022-08-05T01:32:12.515Z,23.43
2022-08-05T01:32:53.978Z,23.41
2022-08-05T01:33:43.054Z,23.22
2022-08-05T01:34:43.967Z,23.22
2022-08-05T01:35:52.037Z,23.19
2022-08-05T01:36:30.937Z,23.20
2022-08-05T01:37:24.652Z,23.27
2022-08-05T01:38:07.949Z,23.28
2022-08-05T01:38:56.074Z,23.27
2022-08-05T01:39:47.185Z,23.17
2022-08-05T01:40:31.031Z,23.19
2022-08-05T01:41:12.944Z,23.22
2022-08-05T01:41:58.001Z,23.25
2022-08-05T01:42:38.937Z,23.14
2022-08-05T01:43:27.952Z,23.17
2022-08-05T01:44:22.950Z,23.10
2022-08-05T01:45:28.931Z,22.98
2022-08-05T01:46:42.932Z,23.11
2022-08-05T01:47:43.194Z,22.99
2022-08-05T01:48:40.950Z,22.93
2022-08-05T01:50:00.190Z,22.92
2022-08-05T01:50:53.936Z,22.96
2022-08-05T01:51:51.945Z,22.80
2022-08-05T01:52:49.890Z,23.08
2022-08-05T01:53:57.401Z,23.11
2022-08-05T01:55:21.922Z,23.09
2022-08-05T01:58:09.366Z,23.06
2022-08-05T01:58:10.382Z,23.00
2022-08-05T01:58:56.952Z,23.01
2022-08-05T01:59:54.943Z,22.95
2022-08-05T02:00:51.952Z,22.97
2022-08-05T02:01:47.956Z,22.97
2022-08-05T02:02:46.553Z,22.98
2022-08-05T02:03:51.054Z,22.90
2022-08-05T02:04:35.928Z,22.95
2022-08-05T02:05:18.963Z,22.85
2022-08-05T02:06:33.407Z,22.96
2022-08-05T02:07:06.145Z,22.88
2022-08-05T02:07:56.287Z,22.91
2022-08-05T02:08:54.762Z,22.94
2022-08-05T02:09:35.921Z,22.90
2022-08-05T02:10:17.415Z,22.85
2022-08-05T02:11:23.584Z,22.88
2022-08-05T02:12:47.121Z,22.84
2022-08-05T02:13:53.394Z,22.85
2022-08-05T02:14:59.924Z,22.87
2022-08-05T02:16:16.621Z,22.85
2022-08-05T02:18:31.819Z,22.83
2022-08-05T02:19:07.221Z,22.83
2022-08-05T02:20:06.943Z,22.75
2022-08-05T02:21:15.199Z,22.63
2022-08-05T02:22:44.901Z,22.75
2022-08-05T02:23:44.899Z,22.66
2022-08-05T02:24:47.898Z,22.60
2022-08-05T02:25:49.025Z,22.66
2022-08-05T02:26:54.099Z,22.83
2022-08-05T02:27:59.080Z,22.74
2022-08-05T02:28:38.387Z,22.80
2022-08-05T02:29:59.216Z,22.61
2022-08-05T02:30:29.052Z,22.68
2022-08-05T02:31:25.908Z,22.68
2022-08-05T02:32:11.064Z,22.63
2022-08-05T02:32:57.944Z,22.62
2022-08-05T02:33:44.919Z,22.65
2022-08-05T02:34:28.892Z,22.56
2022-08-05T02:35:18.985Z,22.65
2022-08-05T02:36:03.883Z,22.67
2022-08-05T02:36:51.285Z,22.55
2022-08-05T02:37:27.937Z,22.60
2022-08-05T02:38:19.948Z,22.67
2022-08-05T02:38:56.116Z,22.67
2022-08-05T02:39:47.688Z,22.76
2022-08-05T02:40:26.084Z,22.64
2022-08-05T02:41:17.806Z,22.57
2022-08-05T02:42:01.638Z,22.59
2022-08-05T02:42:56.860Z,22.56
2022-08-05T02:44:02.816Z,22.56
2022-08-05T02:45:01.892Z,22.58
2022-08-05T02:45:56.884Z,22.44
2022-08-05T02:47:00.870Z,22.42
2022-08-05T02:48:06.860Z,22.37
2022-08-05T02:48:43.946Z,22.39
2022-08-05T02:49:24.867Z,22.47
2022-08-05T02:50:06.935Z,22.42
2022-08-05T02:50:52.875Z,22.51
2022-08-05T02:52:02.659Z,22.49
2022-08-05T02:52:32.918Z,22.43
2022-08-05T02:53:18.939Z,22.20
2022-08-05T02:54:04.006Z,22.40
2022-08-05T02:54:51.083Z,22.32
2022-08-05T02:55:52.187Z,22.31
2022-08-05T02:56:33.955Z,22.22
2022-08-05T02:58:10.336Z,22.30
2022-08-05T02:58:27.347Z,22.33
2022-08-05T02:59:02.953Z,22.25
2022-08-05T02:59:53.875Z,22.41
2022-08-05T03:00:28.002Z,22.39
2022-08-05T03:01:20.918Z,22.33
2022-08-05T03:02:00.546Z,22.35
2022-08-05T03:02:50.861Z,22.41
2022-08-05T03:04:02.984Z,22.39
2022-08-05T03:04:47.880Z,22.33
2022-08-05T03:06:54.484Z,22.27
2022-08-05T03:07:01.870Z,22.37
2022-08-05T03:08:00.670Z,22.26
2022-08-05T03:08:56.888Z,22.25
2022-08-05T03:09:37.447Z,22.30
2022-08-05T03:10:27.841Z,22.17
2022-08-05T03:11:53.455Z,22.13
2022-08-05T03:12:09.869Z,22.26
2022-08-05T03:12:46.333Z,22.22
2022-08-05T03:13:51.097Z,22.28
2022-08-05T03:14:45.965Z,22.19
2022-08-05T03:15:41.856Z,22.27
2022-08-05T03:16:35.990Z,22.28
2022-08-05T03:17:29.881Z,22.21
2022-08-05T03:18:29.794Z,22.20
2022-08-05T03:19:33.941Z,22.23
2022-08-05T03:20:16.878Z,22.25
2022-08-05T03:20:57.012Z,22.21
2022-08-05T03:21:41.620Z,22.22
2022-08-05T03:22:31.952Z,22.34
2022-08-05T03:23:15.833Z,22.24
2022-08-05T03:23:57.952Z,22.24
2022-08-05T03:24:38.858Z,22.25
2022-08-05T03:26:05.020Z,22.27
2022-08-05T03:26:49.275Z,22.22
2022-08-05T03:28:00.244Z,22.27
2022-08-05T03:28:54.833Z,22.30
2022-08-05T03:30:08.621Z,22.12
2022-08-05T03:30:55.965Z,22.07
2022-08-05T03:31:57.045Z,22.11
2022-08-05T03:32:37.859Z,22.08
2022-08-05T03:33:12.950Z,22.04
2022-08-05T03:33:59.856Z,22.07
2022-08-05T03:34:34.909Z,22.00
2022-08-05T03:35:23.849Z,21.98
2022-08-05T03:36:06.731Z,21.94
2022-08-05T03:37:05.858Z,21.98
2022-08-05T03:37:59.837Z,22.02
2022-08-05T03:38:54.916Z,22.04
2022-08-05T03:39:59.487Z,21.91
2022-08-05T03:40:57.915Z,21.94
2022-08-05T03:41:38.678Z,21.96
2022-08-05T03:42:28.934Z,21.89
2022-08-05T03:43:58.405Z,21.95
2022-08-05T03:44:12.169Z,21.88
2022-08-05T03:44:52.833Z,21.86
2022-08-05T03:45:55.153Z,21.87
2022-08-05T03:46:33.821Z,21.84
2022-08-05T03:47:13.850Z,21.75
2022-08-05T03:47:47.889Z,21.76
2022-08-05T03:48:37.826Z,21.74
2022-08-05T03:49:12.894Z,21.74
2022-08-05T03:50:01.836Z,21.70
2022-08-05T03:50:56.981Z,21.58
2022-08-05T03:52:38.146Z,21.67
2022-08-05T03:55:34.714Z,21.61
2022-08-05T03:56:01.121Z,21.66
2022-08-05T03:57:00.068Z,21.65
2022-08-05T03:57:54.827Z,21.62
2022-08-05T03:58:44.855Z,21.68
2022-08-05T03:59:47.132Z,21.69
2022-08-05T04:00:37.865Z,21.67
2022-08-05T04:01:16.946Z,21.77
2022-08-05T04:02:12.228Z,21.74
2022-08-05T04:02:58.173Z,21.60
2022-08-05T04:04:09.087Z,21.56
2022-08-05T04:04:40.896Z,21.58
2022-08-05T04:05:36.813Z,21.66
2022-08-05T04:06:14.866Z,21.67
2022-08-05T04:07:02.894Z,21.68
2022-08-05T04:07:57.478Z,21.59
2022-08-05T04:08:45.810Z,21.68
2022-08-05T04:09:29.813Z,21.73
2022-08-05T04:10:37.531Z,21.70
2022-08-05T04:11:47.432Z,21.80
2022-08-05T04:12:44.808Z,21.87
2022-08-05T04:13:51.018Z,21.95
2022-08-05T04:14:33.826Z,21.98
2022-08-05T04:15:15.539Z,21.97
2022-08-05T04:16:04.489Z,21.90
2022-08-05T04:16:47.884Z,21.87
2022-08-05T04:17:55.578Z,21.94
2022-08-05T04:18:32.249Z,21.93
2022-08-05T04:19:19.803Z,22.08
2022-08-05T04:20:03.838Z,22.05
2022-08-05T04:20:41.155Z,22.12
2022-08-05T04:22:09.882Z,22.19
2022-08-05T04:22:22.872Z,22.21
2022-08-05T04:23:16.030Z,22.15
2022-08-05T04:23:57.114Z,22.20
2022-08-05T04:24:53.795Z,22.26
2022-08-05T04:25:56.820Z,22.30
2022-08-05T04:26:48.795Z,22.25
2022-08-05T04:27:56.655Z,22.26
2022-08-05T04:28:52.241Z,22.30
2022-08-05T04:29:45.805Z,22.32
2022-08-05T04:30:42.856Z,22.41
2022-08-05T04:31:38.706Z,22.47
2022-08-05T04:32:33.794Z,22.36
2022-08-05T04:34:18.750Z,22.39
2022-08-05T04:34:44.794Z,22.40
2022-08-05T04:36:09.408Z,22.41
2022-08-05T04:36:45.208Z,22.42
2022-08-05T04:37:31.591Z,22.29
2022-08-05T04:38:39.735Z,22.35
2022-08-05T04:39:20.985Z,22.29
2022-08-05T04:40:02.785Z,22.24
2022-08-05T04:40:50.670Z,22.28
2022-08-05T04:41:36.877Z,22.27
2022-08-05T04:42:17.821Z,22.27
2022-08-05T04:42:58.865Z,22.26
2022-08-05T04:43:48.175Z,22.25
2022-08-05T04:44:29.992Z,22.16
2022-08-05T04:45:31.366Z,22.16
2022-08-05T04:46:11.851Z,22.21
2022-08-05T04:46:59.779Z,22.20
2022-08-05T04:47:42.911Z,22.13
2022-08-05T04:48:41.798Z,22.19
2022-08-05T04:50:01.029Z,22.26
2022-08-05T04:51:02.887Z,22.23
2022-08-05T04:52:03.760Z,22.31
2022-08-05T04:52:57.796Z,22.26
2022-08-05T04:53:51.790Z,22.32
2022-08-05T04:54:49.310Z,22.36
2022-08-05T04:56:33.769Z,22.43
2022-08-05T04:56:59.745Z,22.52
2022-08-05T04:57:54.517Z,22.49
2022-08-05T04:58:34.789Z,22.48
2022-08-05T04:59:23.963Z,22.59
2022-08-05T05:00:17.764Z,22.65
2022-08-05T05:00:57.900Z,22.70
2022-08-05T05:02:35.252Z,22.80
2022-08-05T05:02:43.134Z,22.79
2022-08-05T05:03:23.787Z,22.70
2022-08-05T05:04:03.801Z,22.76
2022-08-05T05:04:43.738Z,22.78
2022-08-05T05:05:31.770Z,22.76
2022-08-05T05:06:40.069Z,22.87
2022-08-05T05:07:12.759Z,22.84
2022-08-05T05:07:56.198Z,22.94
2022-08-05T05:08:49.887Z,23.02
2022-08-05T05:09:30.798Z,23.05
2022-08-05T05:10:25.771Z,23.05
2022-08-05T05:11:24.782Z,23.09
2022-08-05T05:12:36.845Z,23.11
2022-08-05T05:13:43.020Z,23.15
2022-08-05T05:14:37.797Z,23.26
2022-08-05T05:15:59.427Z,23.26
2022-08-05T05:16:43.495Z,23.22
2022-08-05T05:17:56.249Z,23.23
2022-08-05T05:18:28.337Z,23.40
2022-08-05T05:19:23.597Z,23.40
2022-08-05T05:20:07.777Z,23.51
2022-08-05T05:20:50.932Z,23.42
2022-08-05T05:21:30.775Z,23.55
2022-08-05T05:22:24.496Z,23.58
2022-08-05T05:23:20.026Z,23.54
2022-08-05T05:24:03.734Z,23.58
2022-08-05T05:24:56.851Z,23.55
2022-08-05T05:25:41.106Z,23.68
2022-08-05T05:26:14.822Z,23.66
2022-08-05T05:26:51.956Z,23.65
2022-08-05T05:27:48.517Z,23.73
2022-08-05T05:28:27.850Z,23.70
2022-08-05T05:29:14.424Z,23.70
2022-08-05T05:30:04.152Z,23.79
2022-08-05T05:30:38.815Z,23.74
2022-08-05T05:31:19.784Z,23.82
2022-08-05T05:32:00.813Z,23.87
2022-08-05T05:32:44.738Z,23.93
2022-08-05T05:33:29.857Z,23.93
2022-08-05T05:34:30.758Z,23.97
2022-08-05T05:35:11.920Z,23.94
2022-08-05T05:35:59.746Z,23.95
2022-08-05T05:36:39.846Z,24.05
2022-08-05T05:37:14.938Z,23.94
2022-08-05T05:38:01.372Z,24.02
2022-08-05T05:38:43.872Z,24.05
2022-08-05T05:39:19.096Z,24.09
2022-08-05T05:39:53.702Z,24.09
2022-08-05T05:40:37.744Z,24.09
2022-08-05T05:41:18.531Z,24.05
2022-08-05T05:41:58.765Z,24.18
2022-08-05T05:42:38.812Z,24.14
2022-08-05T05:43:22.335Z,24.11
2022-08-05T05:44:36.253Z,24.11
2022-08-05T05:45:17.723Z,24.08
2022-08-05T05:45:57.804Z,24.18
2022-08-05T05:46:37.739Z,24.22
2022-08-05T05:47:21.679Z,24.21
2022-08-05T05:48:06.247Z,24.20
2022-08-05T05:48:43.990Z,24.29
2022-08-05T05:49:24.784Z,24.14
2022-08-05T05:50:01.407Z,24.27
2022-08-05T05:50:44.160Z,24.31
2022-08-05T05:51:29.729Z,24.33
2022-08-05T05:52:33.204Z,24.36
2022-08-05T05:53:22.471Z,24.32
2022-08-05T05:54:11.582Z,24.26
2022-08-05T05:54:50.150Z,24.41
2022-08-05T05:55:51.464Z,24.42
2022-08-05T05:56:34.408Z,24.41
2022-08-05T05:57:21.847Z,24.46
2022-08-05T05:58:02.757Z,24.50
2022-08-05T05:58:47.782Z,24.46
2022-08-05T05:59:30.725Z,24.52
2022-08-05T06:00:27.707Z,24.51
2022-08-05T06:01:12.589Z,24.52
2022-08-05T06:01:57.526Z,24.54
2022-08-05T06:02:38.749Z,24.56
2022-08-05T06:03:40.757Z,24.54
2022-08-05T06:04:19.555Z,24.62
2022-08-05T06:05:10.628Z,24.60
2022-08-05T06:05:54.020Z,24.52
2022-08-05T06:06:43.119Z,24.67
2022-08-05T06:07:22.496Z,24.64
2022-08-05T06:08:32.626Z,24.66
2022-08-05T06:09:07.622Z,24.77
2022-08-05T06:10:01.515Z,24.79
2022-08-05T06:10:38.454Z,24.81
2022-08-05T06:11:39.711Z,24.80
2022-08-05T06:12:13.438Z,24.83
2022-08-05T06:13:02.738Z,24.88
2022-08-05T06:13:53.663Z,24.86
2022-08-05T06:14:40.133Z,24.95
2022-08-05T06:15:23.904Z,24.97
2022-08-05T06:16:29.331Z,25.01
2022-08-05T06:17:31.956Z,25.02
2022-08-05T06:18:06.790Z,25.03
2022-08-05T06:18:46.736Z,25.09
2022-08-05T06:19:35.682Z,25.10
2022-08-05T06:20:18.833Z,25.16
2022-08-05T06:21:02.804Z,25.14
2022-08-05T06:21:49.794Z,25.05
2022-08-05T06:22:33.553Z,25.18
2022-08-05T06:23:13.706Z,25.20
2022-08-05T06:24:01.740Z,25.12
2022-08-05T06:24:41.107Z,25.23
2022-08-05T06:26:12.237Z,25.22
2022-08-05T06:26:33.826Z,25.29
2022-08-05T06:28:11.848Z,25.29
2022-08-05T06:28:20.989Z,25.39
2022-08-05T06:29:25.410Z,25.38
2022-08-05T06:30:19.948Z,25.39
2022-08-05T06:31:10.937Z,25.48
2022-08-05T06:31:51.610Z,25.48
2022-08-05T06:32:39.726Z,25.46
2022-08-05T06:33:19.037Z,25.47
2022-08-05T06:34:09.001Z,25.56
2022-08-05T06:34:53.466Z,25.59
2022-08-05T06:36:06.863Z,25.60
2022-08-05T06:36:53.698Z,25.61
2022-08-05T06:37:56.370Z,25.60
2022-08-05T06:38:37.194Z,25.69
2022-08-05T06:39:27.685Z,25.75
2022-08-05T06:40:02.638Z,25.78
2022-08-05T06:40:49.705Z,25.76
2022-08-05T06:41:23.413Z,25.79
2022-08-05T06:42:12.709Z,25.77
2022-08-05T06:42:46.485Z,25.76
2022-08-05T06:43:59.153Z,25.74
2022-08-05T06:44:35.726Z,25.83
2022-08-05T06:45:21.010Z,25.81
2022-08-05T06:46:03.723Z,25.79
2022-08-05T06:46:47.821Z,25.76
2022-08-05T06:48:36.148Z,25.83
2022-08-05T06:48:54.526Z,25.82
2022-08-05T06:50:00.570Z,25.94
2022-08-05T06:50:34.685Z,25.86
2022-08-05T06:51:21.862Z,25.93
2022-08-05T06:51:59.483Z,25.88
2022-08-05T06:52:40.693Z,25.93
2022-08-05T06:53:22.360Z,25.91
2022-08-05T06:54:04.333Z,26.07
2022-08-05T06:54:44.739Z,26.03
2022-08-05T06:55:25.746Z,26.11
2022-08-05T06:56:03.394Z,26.18
2022-08-05T06:56:54.813Z,26.11
2022-08-05T06:58:03.356Z,26.04
2022-08-05T06:58:36.206Z,26.21
2022-08-05T06:59:20.696Z,26.29
2022-08-05T07:00:01.717Z,26.25
2022-08-05T07:00:35.393Z,26.34
2022-08-05T07:01:22.899Z,26.38
2022-08-05T07:01:57.438Z,26.32
2022-08-05T07:02:44.697Z,26.35
2022-08-05T07:03:18.398Z,26.45
2022-08-05T07:04:05.692Z,26.36
2022-08-05T07:04:59.696Z,26.34
2022-08-05T07:05:41.116Z,26.43
2022-08-05T07:06:23.197Z,26.42
2022-08-05T07:07:08.001Z,26.55
2022-08-05T07:07:49.786Z,26.59
2022-08-05T07:08:31.692Z,26.64
2022-08-05T07:09:11.834Z,26.68
2022-08-05T07:09:55.449Z,26.66
2022-08-05T07:10:38.692Z,26.66
2022-08-05T07:11:28.650Z,26.62
2022-08-05T07:12:35.706Z,26.68
2022-08-05T07:13:52.462Z,26.66
2022-08-05T07:14:55.703Z,26.80
2022-08-05T07:16:01.965Z,26.78
2022-08-05T07:17:58.677Z,26.81
2022-08-05T07:18:20.391Z,26.83
2022-08-05T07:20:05.764Z,26.88
2022-08-05T07:20:39.046Z,26.90
2022-08-05T07:21:25.782Z,27.00
2022-08-05T07:22:08.102Z,26.98
2022-08-05T07:22:48.684Z,26.96
2022-08-05T07:23:32.825Z,27.03
2022-08-05T07:24:14.779Z,27.03
2022-08-05T07:24:54.757Z,27.05
2022-08-05T07:25:54.698Z,27.07
2022-08-05T07:26:36.714Z,27.10
2022-08-05T07:27:10.767Z,27.12
2022-08-05T07:28:06.046Z,27.05
2022-08-05T07:28:43.795Z,27.06
2022-08-05T07:30:24.482Z,27.18
2022-08-05T07:30:31.683Z,27.16
2022-08-05T07:31:19.677Z,27.30
2022-08-05T07:32:26.196Z,27.23
2022-08-05T07:33:35.243Z,27.37
2022-08-05T07:34:31.679Z,27.43
2022-08-05T07:36:02.191Z,27.40
2022-08-05T07:36:41.778Z,27.44
2022-08-05T07:37:37.631Z,27.49
2022-08-05T07:38:42.896Z,27.49
2022-08-05T07:40:26.258Z,27.52
2022-08-05T07:40:55.624Z,27.55
2022-08-05T07:42:13.980Z,27.57
2022-08-05T07:42:56.748Z,27.60
2022-08-05T07:43:39.786Z,27.66
2022-08-05T07:44:22.671Z,27.62
2022-08-05T07:45:03.314Z,27.69
2022-08-05T07:45:56.968Z,27.73
2022-08-05T07:46:39.757Z,27.71
2022-08-05T07:47:21.781Z,27.74
2022-08-05T07:48:14.735Z,27.76
2022-08-05T07:49:28.684Z,27.73
2022-08-05T07:50:26.653Z,27.85
2022-08-05T07:51:37.609Z,27.85
2022-08-05T07:52:37.159Z,27.90
2022-08-05T07:53:36.626Z,27.93
2022-08-05T07:54:38.551Z,27.93
2022-08-05T07:56:05.379Z,27.95
2022-08-05T07:57:13.312Z,28.00
2022-08-05T07:58:07.004Z,28.04
2022-08-05T07:58:59.482Z,27.94
2022-08-05T07:59:41.054Z,28.07
2022-08-05T08:00:22.664Z,28.04
2022-08-05T08:01:06.156Z,28.14
2022-08-05T08:01:57.730Z,28.12
2022-08-05T08:03:14.290Z,28.17
2022-08-05T08:03:44.022Z,28.13
2022-08-05T08:04:37.476Z,28.17
2022-08-05T08:05:12.753Z,28.24
2022-08-05T08:06:00.642Z,28.24
2022-08-05T08:06:34.793Z,28.31
2022-08-05T08:07:22.428Z,28.33
2022-08-05T08:07:59.554Z,28.33
2022-08-05T08:08:47.634Z,28.27
2022-08-05T08:09:31.669Z,28.34
2022-08-05T08:10:25.659Z,28.40
2022-08-05T08:11:27.574Z,28.45
2022-08-05T08:12:49.243Z,28.44
2022-08-05T08:14:00.608Z,28.43
2022-08-05T08:14:49.675Z,28.39
2022-08-05T08:15:37.363Z,28.47
2022-08-05T08:16:50.351Z,28.47
2022-08-05T08:17:24.882Z,28.57
2022-08-05T08:18:14.633Z,28.51
2022-08-05T08:18:49.986Z,28.49
2022-08-05T08:20:21.306Z,28.61
2022-08-05T08:20:45.344Z,28.65
2022-08-05T08:21:54.648Z,28.65
2022-08-05T08:22:48.628Z,28.68
2022-08-05T08:24:03.842Z,28.64
2022-08-05T08:25:03.420Z,28.71
2022-08-05T08:26:02.839Z,28.77
2022-08-05T08:26:58.661Z,28.81
2022-08-05T08:27:52.642Z,28.80
2022-08-05T08:29:02.379Z,28.71
2022-08-05T08:30:20.210Z,28.84
2022-08-05T08:31:18.717Z,28.93
2022-08-05T08:31:52.793Z,28.97
2022-08-05T08:32:42.642Z,28.98
2022-08-05T08:33:19.140Z,28.99
2022-08-05T08:34:06.665Z,29.01
2022-08-05T08:34:41.734Z,29.04
2022-08-05T08:35:34.703Z,29.04
2022-08-05T08:36:29.322Z,29.05
2022-08-05T08:37:18.845Z,29.03
2022-08-05T08:37:59.914Z,29.05
2022-08-05T08:38:40.643Z,29.18
2022-08-05T08:39:23.449Z,29.15
2022-08-05T08:40:04.503Z,29.19
2022-08-05T08:40:50.525Z,29.17
2022-08-05T08:41:51.841Z,29.20
2022-08-05T08:42:51.028Z,29.23
2022-08-05T08:45:18.857Z,29.23
2022-08-05T08:45:21.318Z,29.23
2022-08-05T08:45:31.849Z,29.32
2022-08-05T08:46:19.626Z,29.33
2022-08-05T08:46:55.744Z,29.31
2022-08-05T08:48:05.564Z,29.25
2022-08-05T08:49:04.200Z,29.35
2022-08-05T08:50:23.461Z,29.41
2022-08-05T08:51:22.226Z,29.34
2022-08-05T08:52:13.682Z,29.44
2022-08-05T08:52:55.869Z,29.47
2022-08-05T08:53:51.600Z,29.45
2022-08-05T08:54:46.026Z,29.50
2022-08-05T08:56:04.477Z,29.53
2022-08-05T08:56:53.649Z,29.59
2022-08-05T08:57:58.021Z,29.59
2022-08-05T08:58:47.655Z,29.67
2022-08-05T08:59:33.852Z,29.67
2022-08-05T09:00:16.595Z,29.61
2022-08-05T09:00:59.965Z,29.66
2022-08-05T09:01:42.562Z,29.65
2022-08-05T09:02:26.779Z,29.69
2022-08-05T09:03:07.635Z,29.67
2022-08-05T09:03:58.251Z,29.67
2022-08-05T09:05:16.920Z,29.77
2022-08-05T09:06:08.970Z,29.82
2022-08-05T09:07:19.260Z,29.88
2022-08-05T09:08:13.592Z,29.87
2022-08-05T09:09:10.638Z,30.00
2022-08-05T09:10:04.601Z,30.02
2022-08-05T09:10:59.630Z,29.99
2022-08-05T09:12:00.153Z,30.14
2022-08-05T09:13:04.818Z,30.09
2022-08-05T09:14:09.517Z,30.20
2022-08-05T09:15:06.047Z,30.20
2022-08-05T09:15:48.194Z,30.24
2022-08-05T09:16:28.602Z,30.28
2022-08-05T09:17:40.089Z,30.34
2022-08-05T09:18:16.599Z,30.34
2022-08-05T09:18:59.307Z,30.36
2022-08-05T09:20:01.351Z,30.35
2022-08-05T09:20:40.619Z,30.44
2022-08-05T09:21:21.197Z,30.44
2022-08-05T09:22:30.709Z,30.44
2022-08-05T09:23:19.176Z,30.50
2022-08-05T09:24:16.623Z,30.47
2022-08-05T09:25:24.069Z,30.52
2022-08-05T09:26:22.223Z,30.53
2022-08-05T09:27:04.651Z,30.53
2022-08-05T09:28:05.339Z,30.61
2022-08-05T09:28:47.695Z,30.65
2022-08-05T09:29:47.783Z,30.64
2022-08-05T09:30:29.675Z,30.56
2022-08-05T09:31:58.569Z,30.62
2022-08-05T09:32:40.632Z,30.60
2022-08-05T09:33:15.342Z,30.54
2022-08-05T09:34:14.569Z,30.70
2022-08-05T09:35:02.765Z,30.73
2022-08-05T09:36:16.361Z,30.76
2022-08-05T09:37:03.666Z,30.79
2022-08-05T09:38:17.572Z,30.79
2022-08-05T09:39:16.788Z,30.81
2022-08-05T09:40:12.634Z,30.89
2022-08-05T09:41:06.565Z,30.91
2022-08-05T09:42:24.483Z,30.94
2022-08-05T09:43:49.433Z,31.01
2022-08-05T09:45:17.549Z,31.09
2022-08-05T09:46:13.561Z,31.08
2022-08-05T09:47:55.290Z,31.18
2022-08-05T09:48:55.311Z,31.11
2022-08-05T09:50:10.595Z,31.25
2022-08-05T09:51:15.320Z,31.27
2022-08-05T09:52:09.558Z,31.31
2022-08-05T09:53:04.658Z,31.30
2022-08-05T09:54:00.549Z,31.31
2022-08-05T09:55:55.086Z,31.27
2022-08-05T09:56:04.757Z,31.36
2022-08-05T09:57:01.800Z,31.38
2022-08-05T09:57:43.251Z,31.42
2022-08-05T09:58:23.586Z,31.49
2022-08-05T09:59:06.766Z,31.49
2022-08-05T09:59:46.563Z,31.51
2022-08-05T10:00:30.758Z,31.56
2022-08-05T10:01:32.047Z,31.54
2022-08-05T10:02:12.650Z,31.53
2022-08-05T10:03:00.603Z,31.61
2022-08-05T10:03:58.519Z,31.62
2022-08-05T10:04:45.169Z,31.64
2022-08-05T10:05:34.559Z,31.68
2022-08-05T10:06:16.654Z,31.70
2022-08-05T10:07:19.608Z,31.73
2022-08-05T10:08:36.427Z,31.74
2022-08-05T10:09:29.193Z,31.71
2022-08-05T10:10:14.991Z,31.67
2022-08-05T10:10:57.554Z,31.68
2022-08-05T10:11:39.618Z,31.72
2022-08-05T10:12:33.384Z,31.72
2022-08-05T10:13:15.623Z,31.78
2022-08-05T10:13:56.585Z,31.82
2022-08-05T10:14:45.587Z,31.83
2022-08-05T10:15:27.272Z,31.82
2022-08-05T10:16:15.557Z,31.82
2022-08-05T10:16:53.480Z,31.84
2022-08-05T10:17:45.760Z,31.96
2022-08-05T10:18:31.881Z,31.92
2022-08-05T10:19:23.836Z,32.03
2022-08-05T10:20:14.633Z,31.91
2022-08-05T10:21:08.439Z,31.93
2022-08-05T10:21:53.578Z,31.92
2022-08-05T10:22:35.020Z,31.86
2022-08-05T10:23:55.352Z,31.93
2022-08-05T10:24:27.052Z,31.95
2022-08-05T10:25:08.582Z,31.91
2022-08-05T10:25:49.576Z,31.91
2022-08-05T10:26:24.302Z,31.92
2022-08-05T10:27:05.500Z,32.01
2022-08-05T10:28:12.980Z,32.09
2022-08-05T10:28:42.766Z,32.06
2022-08-05T10:29:23.675Z,32.14
2022-08-05T10:31:20.448Z,32.19
2022-08-05T10:32:54.346Z,32.23
2022-08-05T10:32:59.514Z,32.22
2022-08-05T10:33:20.549Z,32.28
2022-08-05T10:33:54.785Z,32.28
2022-08-05T10:34:41.544Z,32.27
2022-08-05T10:35:15.846Z,32.26
2022-08-05T10:36:05.558Z,32.34
2022-08-05T10:36:48.556Z,32.37
2022-08-05T10:37:40.491Z,32.39
2022-08-05T10:38:27.537Z,32.43
2022-08-05T10:39:59.088Z,32.35
2022-08-05T10:41:00.630Z,32.36
2022-08-05T10:42:13.221Z,32.42
2022-08-05T10:42:51.277Z,32.46
2022-08-05T10:44:05.683Z,32.48
2022-08-05T10:44:46.085Z,32.47
2022-08-05T10:45:43.534Z,32.49
2022-08-05T10:46:23.941Z,32.48
2022-08-05T10:47:27.061Z,32.51
2022-08-05T10:48:36.062Z,32.58
2022-08-05T10:49:49.023Z,32.64
2022-08-05T10:51:01.721Z,32.71
2022-08-05T10:52:10.568Z,32.70
2022-08-05T10:53:00.584Z,32.72
2022-08-05T10:53:47.660Z,32.73
2022-08-05T10:54:29.893Z,32.72
2022-08-05T10:55:18.727Z,32.80
2022-08-05T10:56:25.485Z,32.80
2022-08-05T10:57:07.676Z,32.75
2022-08-05T10:57:52.514Z,32.77
2022-08-05T10:58:47.795Z,32.80
2022-08-05T11:00:02.995Z,32.84
2022-08-05T11:00:33.242Z,32.88
2022-08-05T11:01:15.082Z,32.87
2022-08-05T11:02:03.688Z,32.89
2022-08-05T11:02:59.059Z,32.90
2022-08-05T11:04:18.541Z,32.97
2022-08-05T11:05:00.645Z,32.86
2022-08-05T11:05:35.184Z,32.91
2022-08-05T11:06:19.550Z,32.98
2022-08-05T11:07:06.567Z,33.02
2022-08-05T11:08:22.141Z,33.06
2022-08-05T11:09:39.506Z,33.06